sensor_id;sensor_type;location;lat;lon;timestamp;temperature;humidity
11270;DHT22;5692;48.956;9.200;2023-10-09T01:24:15;13.00;99.90
11270;DHT22;5692;48.956;9.200;2023-10-09T01:26:42;12.90;99.90
11270;DHT22;5692;48.956;9.200;2023-10-09T01:29:22;12.90;99.90
11270;DHT22;5692;48.956;9.200;2023-10-09T01:31:53;13.00;99.90
11270;DHT22;5692;48.956;9.200;2023-10-09T01:34:30;13.00;99.90
11270;DHT22;5692;48.956;9.200;2023-10-09T01:37:17;12.90;99.90
11270;DHT22;5692;48.956;9.200;2023-10-09T01:39:49;13.10;99.90
11270;DHT22;5692;48.956;9.200;2023-10-09T01:42:17;13.00;99.90
11270;DHT22;5692;48.956;9.200;2023-10-09T01:44:50;13.00;99.90
11270;DHT22;5692;48.956;9.200;2023-10-09T01:47:18;12.90;99.90
11270;DHT22;5692;48.956;9.200;2023-10-09T01:49:45;13.00;99.90
11270;DHT22;5692;48.956;9.200;2023-10-09T01:52:15;13.20;99.90
11270;DHT22;5692;48.956;9.200;2023-10-09T01:54:43;12.90;99.90
11270;DHT22;5692;48.956;9.200;2023-10-09T01:57:16;13.00;99.90
11270;DHT22;5692;48.956;9.200;2023-10-09T01:59:47;12.90;99.90
11270;DHT22;5692;48.956;9.200;2023-10-09T02:02:15;13.00;99.90
11270;DHT22;5692;48.956;9.200;2023-10-09T02:05:04;13.00;99.90
11270;DHT22;5692;48.956;9.200;2023-10-09T02:07:30;12.90;99.90
11270;DHT22;5692;48.956;9.200;2023-10-09T02:10:09;13.00;99.90
11270;DHT22;5692;48.956;9.200;2023-10-09T02:12:47;12.90;99.90
11270;DHT22;5692;48.956;9.200;2023-10-09T02:15:20;12.90;99.90
11270;DHT22;5692;48.956;9.200;2023-10-09T02:18:06;13.00;99.90
11270;DHT22;5692;48.956;9.200;2023-10-09T02:20:52;12.90;99.90
11270;DHT22;5692;48.956;9.200;2023-10-09T02:23:37;12.90;99.90
11270;DHT22;5692;48.956;9.200;2023-10-09T02:26:10;12.90;99.90
11270;DHT22;5692;48.956;9.200;2023-10-09T02:28:43;12.90;99.90
11270;DHT22;5692;48.956;9.200;2023-10-09T02:31:10;12.90;99.90
11270;DHT22;5692;48.956;9.200;2023-10-09T02:33:36;12.90;99.90
11270;DHT22;5692;48.956;9.200;2023-10-09T02:36:07;12.90;99.90
11270;DHT22;5692;48.956;9.200;2023-10-09T02:38:33;12.90;99.90
11270;DHT22;5692;48.956;9.200;2023-10-09T02:41:01;13.20;99.90
11270;DHT22;5692;48.956;9.200;2023-10-09T02:43:32;13.20;99.90
11270;DHT22;5692;48.956;9.200;2023-10-09T02:46:14;12.90;99.90
11270;DHT22;5692;48.956;9.200;2023-10-09T02:48:47;12.90;99.90
11270;DHT22;5692;48.956;9.200;2023-10-09T02:51:20;12.90;99.90
11270;DHT22;5692;48.956;9.200;2023-10-09T02:54:01;12.90;99.90
11270;DHT22;5692;48.956;9.200;2023-10-09T02:56:34;12.90;99.90
11270;DHT22;5692;48.956;9.200;2023-10-09T02:59:08;12.90;99.90
11270;DHT22;5692;48.956;9.200;2023-10-09T03:01:39;12.70;99.90
11270;DHT22;5692;48.956;9.200;2023-10-09T03:04:06;12.90;99.90
11270;DHT22;5692;48.956;9.200;2023-10-09T03:06:32;12.90;99.90
11270;DHT22;5692;48.956;9.200;2023-10-09T03:09:02;12.90;99.90
11270;DHT22;5692;48.956;9.200;2023-10-09T03:11:46;12.90;99.90
11270;DHT22;5692;48.956;9.200;2023-10-09T03:14:14;12.90;99.90
11270;DHT22;5692;48.956;9.200;2023-10-09T03:16:40;13.00;99.90
11270;DHT22;5692;48.956;9.200;2023-10-09T03:19:05;12.90;99.90
11270;DHT22;5692;48.956;9.200;2023-10-09T03:21:31;12.90;99.90
11270;DHT22;5692;48.956;9.200;2023-10-09T03:24:00;13.20;99.90
11270;DHT22;5692;48.956;9.200;2023-10-09T03:26:30;12.90;99.90
11270;DHT22;5692;48.956;9.200;2023-10-09T03:28:57;12.90;99.90
11270;DHT22;5692;48.956;9.200;2023-10-09T03:31:27;12.80;99.90
11270;DHT22;5692;48.956;9.200;2023-10-09T03:33:56;12.80;99.90
11270;DHT22;5692;48.956;9.200;2023-10-09T03:36:21;13.20;99.90
11270;DHT22;5692;48.956;9.200;2023-10-09T03:38:47;12.90;99.90
11270;DHT22;5692;48.956;9.200;2023-10-09T03:41:13;12.90;99.90
11270;DHT22;5692;48.956;9.200;2023-10-09T03:43:42;12.90;99.90
11270;DHT22;5692;48.956;9.200;2023-10-09T03:46:08;12.60;99.90
11270;DHT22;5692;48.956;9.200;2023-10-09T03:48:48;12.90;99.90
11270;DHT22;5692;48.956;9.200;2023-10-09T03:51:15;12.90;99.90
11270;DHT22;5692;48.956;9.200;2023-10-09T03:53:50;13.10;99.90
11270;DHT22;5692;48.956;9.200;2023-10-09T03:56:18;12.90;99.90
11270;DHT22;5692;48.956;9.200;2023-10-09T03:58:48;13.10;99.90
11270;DHT22;5692;48.956;9.200;2023-10-09T04:01:23;12.90;99.90
11270;DHT22;5692;48.956;9.200;2023-10-09T04:03:59;12.90;99.90
11270;DHT22;5692;48.956;9.200;2023-10-09T04:06:29;13.10;99.90
11270;DHT22;5692;48.956;9.200;2023-10-09T04:08:58;13.20;99.90
11270;DHT22;5692;48.956;9.200;2023-10-09T04:11:25;12.90;99.90
11270;DHT22;5692;48.956;9.200;2023-10-09T04:13:51;12.80;99.90
11270;DHT22;5692;48.956;9.200;2023-10-09T04:16:21;12.80;99.90
11270;DHT22;5692;48.956;9.200;2023-10-09T04:19:02;12.80;99.90
11270;DHT22;5692;48.956;9.200;2023-10-09T04:21:36;12.80;99.90
11270;DHT22;5692;48.956;9.200;2023-10-09T04:24:07;12.80;99.90
11270;DHT22;5692;48.956;9.200;2023-10-09T04:26:50;12.80;99.90
11270;DHT22;5692;48.956;9.200;2023-10-09T04:29:23;13.00;99.90
11270;DHT22;5692;48.956;9.200;2023-10-09T04:31:55;12.70;99.90
11270;DHT22;5692;48.956;9.200;2023-10-09T04:34:25;13.00;99.90
11270;DHT22;5692;48.956;9.200;2023-10-09T04:36:57;12.70;99.90
11270;DHT22;5692;48.956;9.200;2023-10-09T04:39:29;12.70;99.90
11270;DHT22;5692;48.956;9.200;2023-10-09T04:41:55;12.60;99.90
11270;DHT22;5692;48.956;9.200;2023-10-09T04:44:41;13.00;99.90
11270;DHT22;5692;48.956;9.200;2023-10-09T04:47:28;12.70;99.90
11270;DHT22;5692;48.956;9.200;2023-10-09T04:50:12;12.70;99.90
11270;DHT22;5692;48.956;9.200;2023-10-09T04:53:04;12.80;99.90
11270;DHT22;5692;48.956;9.200;2023-10-09T04:55:40;12.70;99.90
11270;DHT22;5692;48.956;9.200;2023-10-09T04:58:09;12.70;99.90
11270;DHT22;5692;48.956;9.200;2023-10-09T05:00:39;12.70;99.90
11270;DHT22;5692;48.956;9.200;2023-10-09T05:03:08;12.80;99.90
11270;DHT22;5692;48.956;9.200;2023-10-09T05:05:38;13.00;99.90
11270;DHT22;5692;48.956;9.200;2023-10-09T05:08:17;12.70;99.90
11270;DHT22;5692;48.956;9.200;2023-10-09T05:10:55;12.90;99.90
11270;DHT22;5692;48.956;9.200;2023-10-09T05:13:29;12.70;99.90
11270;DHT22;5692;48.956;9.200;2023-10-09T05:16:13;12.70;99.90
11270;DHT22;5692;48.956;9.200;2023-10-09T05:18:52;12.70;99.90
11270;DHT22;5692;48.956;9.200;2023-10-09T05:21:26;13.00;99.90
11270;DHT22;5692;48.956;9.200;2023-10-09T05:24:01;12.90;99.90
11270;DHT22;5692;48.956;9.200;2023-10-09T05:32:06;12.70;99.90
11270;DHT22;5692;48.956;9.200;2023-10-09T05:34:38;12.70;99.90
11270;DHT22;5692;48.956;9.200;2023-10-09T05:37:26;12.80;99.90
11270;DHT22;5692;48.956;9.200;2023-10-09T05:39:58;13.00;99.90
11270;DHT22;5692;48.956;9.200;2023-10-09T05:42:49;12.80;99.90
11270;DHT22;5692;48.956;9.200;2023-10-09T05:45:24;13.00;99.90
11270;DHT22;5692;48.956;9.200;2023-10-09T05:47:56;12.70;99.90
11270;DHT22;5692;48.956;9.200;2023-10-09T05:50:31;12.80;99.90
11270;DHT22;5692;48.956;9.200;2023-10-09T05:53:01;12.80;99.90
11270;DHT22;5692;48.956;9.200;2023-10-09T05:55:29;12.80;99.90
11270;DHT22;5692;48.956;9.200;2023-10-09T05:58:13;12.80;99.90
11270;DHT22;5692;48.956;9.200;2023-10-09T06:00:58;13.00;99.90
11270;DHT22;5692;48.956;9.200;2023-10-09T06:03:43;12.80;99.90
11270;DHT22;5692;48.956;9.200;2023-10-09T06:06:19;12.90;99.90
11270;DHT22;5692;48.956;9.200;2023-10-09T06:09:20;12.80;99.90
11270;DHT22;5692;48.956;9.200;2023-10-09T06:11:48;12.90;99.90
11270;DHT22;5692;48.956;9.200;2023-10-09T06:14:39;12.90;99.90
11270;DHT22;5692;48.956;9.200;2023-10-09T06:17:28;12.90;99.90
11270;DHT22;5692;48.956;9.200;2023-10-09T06:20:11;13.10;99.90
11270;DHT22;5692;48.956;9.200;2023-10-09T06:22:57;13.00;99.90
11270;DHT22;5692;48.956;9.200;2023-10-09T06:25:23;12.90;99.90
11270;DHT22;5692;48.956;9.200;2023-10-09T06:28:00;13.00;99.90
11270;DHT22;5692;48.956;9.200;2023-10-09T06:30:27;12.90;99.90
11270;DHT22;5692;48.956;9.200;2023-10-09T06:33:00;13.00;99.90
11270;DHT22;5692;48.956;9.200;2023-10-09T06:35:45;13.20;99.90
11270;DHT22;5692;48.956;9.200;2023-10-09T06:38:19;13.00;99.90
11270;DHT22;5692;48.956;9.200;2023-10-09T06:40:50;13.10;99.90
11270;DHT22;5692;48.956;9.200;2023-10-09T06:43:37;13.20;99.90
11270;DHT22;5692;48.956;9.200;2023-10-09T06:46:15;13.30;99.90
11270;DHT22;5692;48.956;9.200;2023-10-09T06:49:03;13.20;99.90
11270;DHT22;5692;48.956;9.200;2023-10-09T06:51:49;13.00;99.90
11270;DHT22;5692;48.956;9.200;2023-10-09T06:54:38;13.10;99.90
11270;DHT22;5692;48.956;9.200;2023-10-09T06:57:26;13.20;99.90
11270;DHT22;5692;48.956;9.200;2023-10-09T07:00:14;13.30;99.90
11270;DHT22;5692;48.956;9.200;2023-10-09T07:02:59;13.20;99.90
11270;DHT22;5692;48.956;9.200;2023-10-09T07:06:00;13.40;99.90
11270;DHT22;5692;48.956;9.200;2023-10-09T07:08:37;13.40;99.90
11270;DHT22;5692;48.956;9.200;2023-10-09T07:11:25;13.20;99.90
11270;DHT22;5692;48.956;9.200;2023-10-09T07:14:44;13.20;99.90
11270;DHT22;5692;48.956;9.200;2023-10-09T07:17:32;13.80;99.90
11270;DHT22;5692;48.956;9.200;2023-10-09T07:20:03;13.50;99.90
11270;DHT22;5692;48.956;9.200;2023-10-09T07:23:01;13.60;99.90
11270;DHT22;5692;48.956;9.200;2023-10-09T07:25:42;13.70;99.90
11270;DHT22;5692;48.956;9.200;2023-10-09T07:28:21;13.80;99.90
11270;DHT22;5692;48.956;9.200;2023-10-09T07:31:08;13.80;99.90
11270;DHT22;5692;48.956;9.200;2023-10-09T07:33:34;13.90;99.90
11270;DHT22;5692;48.956;9.200;2023-10-09T07:36:23;13.80;99.90
11270;DHT22;5692;48.956;9.200;2023-10-09T07:42:22;13.90;99.90
11270;DHT22;5692;48.956;9.200;2023-10-09T07:45:07;14.00;99.90
11270;DHT22;5692;48.956;9.200;2023-10-09T07:47:59;14.00;99.90
11270;DHT22;5692;48.956;9.200;2023-10-09T07:50:24;14.30;99.90
11270;DHT22;5692;48.956;9.200;2023-10-09T07:52:57;14.10;99.90
11270;DHT22;5692;48.956;9.200;2023-10-09T07:55:40;14.20;99.90
11270;DHT22;5692;48.956;9.200;2023-10-09T07:58:11;14.30;99.90
11270;DHT22;5692;48.956;9.200;2023-10-09T08:00:37;14.30;99.90
11270;DHT22;5692;48.956;9.200;2023-10-09T08:03:24;14.50;99.90
11270;DHT22;5692;48.956;9.200;2023-10-09T08:05:50;14.40;99.90
11270;DHT22;5692;48.956;9.200;2023-10-09T08:08:18;14.40;99.90
11270;DHT22;5692;48.956;9.200;2023-10-09T08:10:59;14.50;99.90
11270;DHT22;5692;48.956;9.200;2023-10-09T08:13:43;14.80;99.90
11270;DHT22;5692;48.956;9.200;2023-10-09T08:16:15;14.60;99.90
11270;DHT22;5692;48.956;9.200;2023-10-09T08:18:47;14.70;99.90
11270;DHT22;5692;48.956;9.200;2023-10-09T08:21:18;15.00;99.90
11270;DHT22;5692;48.956;9.200;2023-10-09T08:23:43;14.80;99.90
11270;DHT22;5692;48.956;9.200;2023-10-09T08:26:16;15.00;99.90
11270;DHT22;5692;48.956;9.200;2023-10-09T08:29:05;14.90;99.90
11270;DHT22;5692;48.956;9.200;2023-10-09T08:31:43;15.30;99.90
11270;DHT22;5692;48.956;9.200;2023-10-09T08:34:12;15.00;99.90
11270;DHT22;5692;48.956;9.200;2023-10-09T08:36:50;15.10;99.90
11270;DHT22;5692;48.956;9.200;2023-10-09T09:23:20;16.10;99.90
11270;DHT22;5692;48.956;9.200;2023-10-09T09:26:09;16.40;99.90
11270;DHT22;5692;48.956;9.200;2023-10-09T09:29:10;16.30;99.90
11270;DHT22;5692;48.956;9.200;2023-10-09T09:32:01;16.70;99.90
11270;DHT22;5692;48.956;9.200;2023-10-09T09:37:41;17.00;99.90
11270;DHT22;5692;48.956;9.200;2023-10-09T09:43:16;17.40;99.90
11270;DHT22;5692;48.956;9.200;2023-10-09T09:46:12;17.10;99.90
11270;DHT22;5692;48.956;9.200;2023-10-09T09:48:50;17.70;99.90
11270;DHT22;5692;48.956;9.200;2023-10-09T11:30:53;20.70;99.90
11270;DHT22;5692;48.956;9.200;2023-10-09T11:34:08;20.70;99.90
11270;DHT22;5692;48.956;9.200;2023-10-09T11:36:36;20.40;99.90
11270;DHT22;5692;48.956;9.200;2023-10-09T11:42:48;19.70;99.90
11270;DHT22;5692;48.956;9.200;2023-10-09T11:56:13;19.80;99.90
11270;DHT22;5692;48.956;9.200;2023-10-09T12:08:40;20.20;99.90
11270;DHT22;5692;48.956;9.200;2023-10-09T12:11:06;20.70;99.90
11270;DHT22;5692;48.956;9.200;2023-10-09T12:13:40;20.30;99.90
11270;DHT22;5692;48.956;9.200;2023-10-09T12:16:09;20.40;99.90
11270;DHT22;5692;48.956;9.200;2023-10-09T12:18:44;20.50;99.90
11270;DHT22;5692;48.956;9.200;2023-10-09T12:21:19;20.60;99.90
11270;DHT22;5692;48.956;9.200;2023-10-09T12:23:48;20.80;99.90
11270;DHT22;5692;48.956;9.200;2023-10-09T12:26:18;21.20;99.90
11270;DHT22;5692;48.956;9.200;2023-10-09T12:28:48;21.50;99.90
11270;DHT22;5692;48.956;9.200;2023-10-09T12:31:16;22.10;99.90
11270;DHT22;5692;48.956;9.200;2023-10-09T12:33:48;22.70;99.90
11270;DHT22;5692;48.956;9.200;2023-10-09T12:43:58;23.20;99.90
11270;DHT22;5692;48.956;9.200;2023-10-09T12:46:24;23.20;99.90
11270;DHT22;5692;48.956;9.200;2023-10-09T12:48:51;23.20;99.90
11270;DHT22;5692;48.956;9.200;2023-10-09T12:51:23;23.00;99.90
11270;DHT22;5692;48.956;9.200;2023-10-09T12:53:58;23.20;99.90
11270;DHT22;5692;48.956;9.200;2023-10-09T12:56:29;22.80;99.90
11270;DHT22;5692;48.956;9.200;2023-10-09T12:59:08;22.90;99.90
11270;DHT22;5692;48.956;9.200;2023-10-09T13:01:46;22.80;99.90
11270;DHT22;5692;48.956;9.200;2023-10-09T13:04:25;23.10;99.90
11270;DHT22;5692;48.956;9.200;2023-10-09T13:14:33;24.30;99.90
11270;DHT22;5692;48.956;9.200;2023-10-09T13:22:01;24.90;99.90
11270;DHT22;5692;48.956;9.200;2023-10-09T13:24:29;25.00;99.90
11270;DHT22;5692;48.956;9.200;2023-10-09T13:36:58;25.40;99.90
11270;DHT22;5692;48.956;9.200;2023-10-09T13:47:14;25.00;99.70
11270;DHT22;5692;48.956;9.200;2023-10-09T13:49:59;24.40;99.40
11270;DHT22;5692;48.956;9.200;2023-10-09T14:00:00;23.90;99.40
11270;DHT22;5692;48.956;9.200;2023-10-09T14:07:35;23.70;98.90
11270;DHT22;5692;48.956;9.200;2023-10-09T14:10:20;23.70;98.40
11270;DHT22;5692;48.956;9.200;2023-10-09T14:12:52;23.60;98.30
11270;DHT22;5692;48.956;9.200;2023-10-09T14:15:29;23.50;98.20
11270;DHT22;5692;48.956;9.200;2023-10-09T14:18:07;23.50;97.90
11270;DHT22;5692;48.956;9.200;2023-10-09T14:20:38;23.50;97.50
11270;DHT22;5692;48.956;9.200;2023-10-09T14:23:09;23.60;97.80
11270;DHT22;5692;48.956;9.200;2023-10-09T14:25:42;23.70;96.80
11270;DHT22;5692;48.956;9.200;2023-10-09T14:28:12;23.70;97.00
11270;DHT22;5692;48.956;9.200;2023-10-09T14:30:44;23.70;96.20
11270;DHT22;5692;48.956;9.200;2023-10-09T14:33:12;23.70;96.20
11270;DHT22;5692;48.956;9.200;2023-10-09T14:35:40;23.60;95.70
11270;DHT22;5692;48.956;9.200;2023-10-09T14:38:06;23.80;95.70
11270;DHT22;5692;48.956;9.200;2023-10-09T14:41:01;23.50;95.10
11270;DHT22;5692;48.956;9.200;2023-10-09T14:43:40;23.50;94.60
11270;DHT22;5692;48.956;9.200;2023-10-09T14:46:21;23.30;94.50
11270;DHT22;5692;48.956;9.200;2023-10-09T14:49:06;23.30;95.70
11270;DHT22;5692;48.956;9.200;2023-10-09T14:51:37;23.10;94.70
11270;DHT22;5692;48.956;9.200;2023-10-09T14:54:11;22.70;95.10
11270;DHT22;5692;48.956;9.200;2023-10-09T14:56:54;23.00;94.80
11270;DHT22;5692;48.956;9.200;2023-10-09T14:59:23;22.90;95.30
11270;DHT22;5692;48.956;9.200;2023-10-09T15:02:33;23.00;94.60
11270;DHT22;5692;48.956;9.200;2023-10-09T15:05:12;22.90;95.90
11270;DHT22;5692;48.956;9.200;2023-10-09T15:07:48;22.90;96.30
11270;DHT22;5692;48.956;9.200;2023-10-09T15:13:08;22.90;96.30
11270;DHT22;5692;48.956;9.200;2023-10-09T15:15:47;22.90;96.00
11270;DHT22;5692;48.956;9.200;2023-10-09T15:18:29;22.90;97.00
11270;DHT22;5692;48.956;9.200;2023-10-09T15:20:59;22.80;96.80
11270;DHT22;5692;48.956;9.200;2023-10-09T15:23:26;22.70;97.00
11270;DHT22;5692;48.956;9.200;2023-10-09T15:25:52;22.60;96.80
11270;DHT22;5692;48.956;9.200;2023-10-09T15:28:24;22.50;97.00
11270;DHT22;5692;48.956;9.200;2023-10-09T15:30:58;22.10;97.40
11270;DHT22;5692;48.956;9.200;2023-10-09T15:33:29;22.40;97.50
11270;DHT22;5692;48.956;9.200;2023-10-09T15:35:57;22.40;97.70
11270;DHT22;5692;48.956;9.200;2023-10-09T15:38:40;22.30;98.00
11270;DHT22;5692;48.956;9.200;2023-10-09T15:41:09;22.20;99.10
11270;DHT22;5692;48.956;9.200;2023-10-09T15:43:43;22.10;99.60
11270;DHT22;5692;48.956;9.200;2023-10-09T15:46:19;22.00;99.90
11270;DHT22;5692;48.956;9.200;2023-10-09T15:48:48;21.90;99.90
11270;DHT22;5692;48.956;9.200;2023-10-09T15:51:16;21.70;99.90
11270;DHT22;5692;48.956;9.200;2023-10-09T15:53:45;21.60;99.90
11270;DHT22;5692;48.956;9.200;2023-10-09T15:56:17;21.50;99.90
11270;DHT22;5692;48.956;9.200;2023-10-09T15:58:52;20.90;99.90
11270;DHT22;5692;48.956;9.200;2023-10-09T16:01:24;21.30;99.90
11270;DHT22;5692;48.956;9.200;2023-10-09T16:03:51;21.10;99.90
11270;DHT22;5692;48.956;9.200;2023-10-09T16:06:28;21.00;99.90
11270;DHT22;5692;48.956;9.200;2023-10-09T16:08:59;20.80;99.90
11270;DHT22;5692;48.956;9.200;2023-10-09T16:11:28;20.60;99.90
11270;DHT22;5692;48.956;9.200;2023-10-09T16:14:01;20.60;99.90
11270;DHT22;5692;48.956;9.200;2023-10-09T16:16:31;20.40;99.90
11270;DHT22;5692;48.956;9.200;2023-10-09T16:19:21;20.20;99.90
11270;DHT22;5692;48.956;9.200;2023-10-09T16:24:14;19.90;99.90
11270;DHT22;5692;48.956;9.200;2023-10-09T16:49:13;19.00;99.90
11270;DHT22;5692;48.956;9.200;2023-10-09T18:20:31;16.80;99.90
11270;DHT22;5692;48.956;9.200;2023-10-09T19:26:46;16.50;99.90
11270;DHT22;5692;48.956;9.200;2023-10-09T19:29:11;16.50;99.90
11270;DHT22;5692;48.956;9.200;2023-10-09T19:31:37;16.50;99.90
11270;DHT22;5692;48.956;9.200;2023-10-09T19:34:03;16.50;99.90
11270;DHT22;5692;48.956;9.200;2023-10-09T19:36:30;16.50;99.90
11270;DHT22;5692;48.956;9.200;2023-10-09T19:38:56;16.50;99.90
11270;DHT22;5692;48.956;9.200;2023-10-09T19:41:25;16.40;99.90
11270;DHT22;5692;48.956;9.200;2023-10-09T19:43:52;16.40;99.90
11270;DHT22;5692;48.956;9.200;2023-10-09T19:46:19;16.40;99.90
11270;DHT22;5692;48.956;9.200;2023-10-09T19:48:45;16.40;99.90
11270;DHT22;5692;48.956;9.200;2023-10-09T19:51:12;16.40;99.90
11270;DHT22;5692;48.956;9.200;2023-10-09T19:53:38;16.40;99.90
11270;DHT22;5692;48.956;9.200;2023-10-09T19:56:08;16.30;99.90
11270;DHT22;5692;48.956;9.200;2023-10-09T19:58:40;16.30;99.90
11270;DHT22;5692;48.956;9.200;2023-10-09T20:01:09;16.30;99.90
11270;DHT22;5692;48.956;9.200;2023-10-09T20:03:41;16.30;99.90
11270;DHT22;5692;48.956;9.200;2023-10-09T20:06:11;16.30;99.90
11270;DHT22;5692;48.956;9.200;2023-10-09T20:08:37;16.20;99.90
11270;DHT22;5692;48.956;9.200;2023-10-09T20:11:06;16.20;99.90
11270;DHT22;5692;48.956;9.200;2023-10-09T20:13:33;16.10;99.90
11270;DHT22;5692;48.956;9.200;2023-10-09T20:15:59;16.10;99.90
11270;DHT22;5692;48.956;9.200;2023-10-09T20:18:26;16.10;99.90
11270;DHT22;5692;48.956;9.200;2023-10-09T20:20:52;16.00;99.90
11270;DHT22;5692;48.956;9.200;2023-10-09T20:23:17;16.00;99.90
11270;DHT22;5692;48.956;9.200;2023-10-09T20:25:43;16.00;99.90
11270;DHT22;5692;48.956;9.200;2023-10-09T20:28:13;16.00;99.90
11270;DHT22;5692;48.956;9.200;2023-10-09T20:30:38;16.00;99.90
11270;DHT22;5692;48.956;9.200;2023-10-09T20:33:04;15.90;99.90
11270;DHT22;5692;48.956;9.200;2023-10-09T20:35:30;15.90;99.90
11270;DHT22;5692;48.956;9.200;2023-10-09T20:37:57;15.90;99.90
11270;DHT22;5692;48.956;9.200;2023-10-09T20:40:28;15.90;99.90
11270;DHT22;5692;48.956;9.200;2023-10-09T20:42:54;15.80;99.90
11270;DHT22;5692;48.956;9.200;2023-10-09T20:45:22;15.80;99.90
11270;DHT22;5692;48.956;9.200;2023-10-09T20:47:48;15.80;99.90
11270;DHT22;5692;48.956;9.200;2023-10-09T20:50:24;15.70;99.90
11270;DHT22;5692;48.956;9.200;2023-10-09T20:52:54;15.70;99.90
11270;DHT22;5692;48.956;9.200;2023-10-09T20:55:21;15.70;99.90
11270;DHT22;5692;48.956;9.200;2023-10-09T20:57:58;15.70;99.90
11270;DHT22;5692;48.956;9.200;2023-10-09T21:00:27;15.70;99.90
11270;DHT22;5692;48.956;9.200;2023-10-09T21:02:53;16.00;99.90
11270;DHT22;5692;48.956;9.200;2023-10-09T21:05:21;15.60;99.90
11270;DHT22;5692;48.956;9.200;2023-10-09T21:07:56;15.50;99.90
11270;DHT22;5692;48.956;9.200;2023-10-09T21:10:22;15.50;99.90
11270;DHT22;5692;48.956;9.200;2023-10-09T21:12:48;15.40;99.90
11270;DHT22;5692;48.956;9.200;2023-10-09T21:15:15;15.80;99.90
11270;DHT22;5692;48.956;9.200;2023-10-09T21:17:42;15.30;99.90
11270;DHT22;5692;48.956;9.200;2023-10-09T21:20:09;15.20;99.90
11270;DHT22;5692;48.956;9.200;2023-10-09T21:22:42;15.20;99.90
11270;DHT22;5692;48.956;9.200;2023-10-09T21:25:09;15.10;99.90
11270;DHT22;5692;48.956;9.200;2023-10-09T21:27:36;15.10;99.90
11270;DHT22;5692;48.956;9.200;2023-10-09T21:30:02;15.10;99.90
11270;DHT22;5692;48.956;9.200;2023-10-09T21:32:30;15.00;99.90
11270;DHT22;5692;48.956;9.200;2023-10-09T21:35:05;15.00;99.90
11270;DHT22;5692;48.956;9.200;2023-10-09T21:37:31;15.00;99.90
11270;DHT22;5692;48.956;9.200;2023-10-09T21:39:59;14.90;99.90
11270;DHT22;5692;48.956;9.200;2023-10-09T21:42:25;14.90;99.90
11270;DHT22;5692;48.956;9.200;2023-10-09T21:44:51;14.80;99.90
11270;DHT22;5692;48.956;9.200;2023-10-09T21:47:17;14.80;99.90
11270;DHT22;5692;48.956;9.200;2023-10-09T21:49:43;14.90;99.90
11270;DHT22;5692;48.956;9.200;2023-10-09T21:52:09;14.90;99.90
11270;DHT22;5692;48.956;9.200;2023-10-09T21:54:38;14.70;99.90
11270;DHT22;5692;48.956;9.200;2023-10-09T21:57:03;14.60;99.90
11270;DHT22;5692;48.956;9.200;2023-10-09T21:59:29;14.60;99.90
11270;DHT22;5692;48.956;9.200;2023-10-09T22:01:55;14.60;99.90
11270;DHT22;5692;48.956;9.200;2023-10-09T22:04:22;14.50;99.90
11270;DHT22;5692;48.956;9.200;2023-10-09T22:06:51;14.50;99.90
11270;DHT22;5692;48.956;9.200;2023-10-09T22:09:16;14.50;99.90
11270;DHT22;5692;48.956;9.200;2023-10-09T22:11:43;14.40;99.90
11270;DHT22;5692;48.956;9.200;2023-10-09T22:14:10;14.80;99.90
11270;DHT22;5692;48.956;9.200;2023-10-09T22:16:35;14.70;99.90
11270;DHT22;5692;48.956;9.200;2023-10-09T22:19:04;14.30;99.90
11270;DHT22;5692;48.956;9.200;2023-10-09T22:21:39;14.30;99.90
11270;DHT22;5692;48.956;9.200;2023-10-09T22:24:04;14.20;99.90
11270;DHT22;5692;48.956;9.200;2023-10-09T22:26:36;14.20;99.90
11270;DHT22;5692;48.956;9.200;2023-10-09T22:29:04;14.50;99.90
11270;DHT22;5692;48.956;9.200;2023-10-09T22:31:30;14.20;99.90
11270;DHT22;5692;48.956;9.200;2023-10-09T22:33:56;14.10;99.90
11270;DHT22;5692;48.956;9.200;2023-10-09T22:36:29;14.10;99.90
11270;DHT22;5692;48.956;9.200;2023-10-09T22:38:55;14.10;99.90
11270;DHT22;5692;48.956;9.200;2023-10-09T22:41:24;14.10;99.90
11270;DHT22;5692;48.956;9.200;2023-10-09T22:43:53;13.90;99.90
11270;DHT22;5692;48.956;9.200;2023-10-09T22:46:19;13.90;99.90
11270;DHT22;5692;48.956;9.200;2023-10-09T22:48:47;13.90;99.90
11270;DHT22;5692;48.956;9.200;2023-10-09T22:51:25;13.90;99.90
11270;DHT22;5692;48.956;9.200;2023-10-09T22:53:55;13.90;99.90
11270;DHT22;5692;48.956;9.200;2023-10-09T22:56:26;14.30;99.90
11270;DHT22;5692;48.956;9.200;2023-10-09T22:58:55;14.00;99.90
11270;DHT22;5692;48.956;9.200;2023-10-09T23:01:21;14.10;99.90
11270;DHT22;5692;48.956;9.200;2023-10-09T23:03:53;13.80;99.90
11270;DHT22;5692;48.956;9.200;2023-10-09T23:06:36;13.80;99.90
11270;DHT22;5692;48.956;9.200;2023-10-09T23:09:06;13.70;99.90
11270;DHT22;5692;48.956;9.200;2023-10-09T23:11:45;13.70;99.90
11270;DHT22;5692;48.956;9.200;2023-10-09T23:14:23;13.70;99.90
11270;DHT22;5692;48.956;9.200;2023-10-09T23:16:55;13.70;99.90
11270;DHT22;5692;48.956;9.200;2023-10-09T23:19:27;13.60;99.90
11270;DHT22;5692;48.956;9.200;2023-10-09T23:21:59;13.60;99.90
11270;DHT22;5692;48.956;9.200;2023-10-09T23:24:47;13.60;99.90
11270;DHT22;5692;48.956;9.200;2023-10-09T23:27:24;13.60;99.90
11270;DHT22;5692;48.956;9.200;2023-10-09T23:30:16;13.60;99.90
11270;DHT22;5692;48.956;9.200;2023-10-09T23:32:48;13.60;99.90
11270;DHT22;5692;48.956;9.200;2023-10-09T23:35:15;13.80;99.90
11270;DHT22;5692;48.956;9.200;2023-10-09T23:37:49;13.50;99.90
11270;DHT22;5692;48.956;9.200;2023-10-09T23:40:34;13.80;99.90
11270;DHT22;5692;48.956;9.200;2023-10-09T23:43:11;13.40;99.90
11270;DHT22;5692;48.956;9.200;2023-10-09T23:45:57;13.40;99.90
11270;DHT22;5692;48.956;9.200;2023-10-09T23:48:28;13.40;99.90
11270;DHT22;5692;48.956;9.200;2023-10-09T23:51:02;13.30;99.90
11270;DHT22;5692;48.956;9.200;2023-10-09T23:53:29;13.30;99.90
11270;DHT22;5692;48.956;9.200;2023-10-09T23:55:59;13.30;99.90
11270;DHT22;5692;48.956;9.200;2023-10-09T23:58:41;13.20;99.90
